createdAt,value
2018-11-27T00:02:20.749Z,345.00
2018-11-27T00:04:52.854Z,348.00
2018-11-27T00:07:24.667Z,353.00
2018-11-27T00:09:56.460Z,371.75
2018-11-27T00:12:28.267Z,321.50
2018-11-27T00:14:59.750Z,335.75
2018-11-27T00:17:31.799Z,343.75
2018-11-27T00:20:04.129Z,342.00
2018-11-27T00:22:35.758Z,351.50
2018-11-27T00:25:09.815Z,357.75
2018-11-27T00:27:41.688Z,353.25
2018-11-27T00:30:16.358Z,352.00
2018-11-27T00:32:48.442Z,358.50
2018-11-27T00:35:21.053Z,361.75
2018-11-27T00:37:53.618Z,357.75
2018-11-27T00:40:25.310Z,332.50
2018-11-27T00:42:57.950Z,368.75
2018-11-27T00:45:29.549Z,343.00
2018-11-27T00:48:01.849Z,322.75
2018-11-27T00:50:34.679Z,354.25
2018-11-27T00:53:06.450Z,397.25
2018-11-27T00:55:38.316Z,379.25
2018-11-27T00:58:09.911Z,335.00
2018-11-27T01:00:42.331Z,349.00
2018-11-27T01:03:13.827Z,359.50
2018-11-27T01:05:46.198Z,354.75
2018-11-27T01:08:18.079Z,360.00
2018-11-27T01:10:50.024Z,351.25
2018-11-27T01:13:21.956Z,352.75
2018-11-27T01:15:54.190Z,328.75
2018-11-27T01:18:25.990Z,345.00
2018-11-27T01:20:58.274Z,335.50
2018-11-27T01:23:29.923Z,359.50
2018-11-27T01:26:01.702Z,357.50
2018-11-27T01:28:33.819Z,362.50
2018-11-27T01:31:05.850Z,380.25
2018-11-27T01:33:38.165Z,410.00
2018-11-27T01:36:09.818Z,431.00
2018-11-27T01:38:41.818Z,426.75
2018-11-27T01:41:14.857Z,395.25
2018-11-27T01:43:46.554Z,387.25
2018-11-27T01:46:18.138Z,328.75
2018-11-27T01:48:50.494Z,363.75
2018-11-27T01:51:22.669Z,364.75
2018-11-27T01:53:54.282Z,354.50
2018-11-27T01:56:28.332Z,392.00
2018-11-27T01:59:00.873Z,377.50
2018-11-27T02:01:32.421Z,371.00
2018-11-27T02:04:05.043Z,366.75
2018-11-27T02:06:40.446Z,368.25
2018-11-27T02:09:15.621Z,375.75
2018-11-27T02:11:47.245Z,381.00
2018-11-27T02:14:19.805Z,370.50
2018-11-27T02:16:52.469Z,384.00
2018-11-27T02:19:26.055Z,385.75
2018-11-27T02:21:59.137Z,388.25
2018-11-27T02:24:30.800Z,397.75
2018-11-27T02:27:03.830Z,387.50
2018-11-27T02:29:35.443Z,422.60
2018-11-27T02:32:07.094Z,423.20
2018-11-27T02:34:38.690Z,419.60
2018-11-27T02:37:10.281Z,434.80
2018-11-27T02:39:45.540Z,420.20
2018-11-27T02:42:17.043Z,429.00
2018-11-27T02:44:48.568Z,408.75
2018-11-27T02:47:19.859Z,409.00
2018-11-27T02:49:52.830Z,408.50
2018-11-27T02:52:24.719Z,403.25
2018-11-27T02:54:56.367Z,429.25
2018-11-27T02:57:32.778Z,429.20
2018-11-27T03:00:05.629Z,419.50
2018-11-27T03:02:41.449Z,425.25
2018-11-27T03:05:29.609Z,411.00
2018-11-27T03:08:02.244Z,419.50
2018-11-27T03:10:34.025Z,407.75
2018-11-27T03:13:05.575Z,399.00
2018-11-27T03:15:37.295Z,424.00
2018-11-27T03:18:09.304Z,422.00
2018-11-27T03:20:40.977Z,411.25
2018-11-27T03:23:13.506Z,408.50
2018-11-27T03:25:44.925Z,397.50
2018-11-27T03:28:16.496Z,435.00
2018-11-27T03:30:50.134Z,393.75
2018-11-27T03:33:21.732Z,385.00
2018-11-27T03:35:53.401Z,351.50
2018-11-27T03:38:26.239Z,372.75
2018-11-27T03:40:58.031Z,390.50
2018-11-27T03:43:29.617Z,345.75
2018-11-27T03:46:01.225Z,354.50
2018-11-27T03:48:32.610Z,372.25
2018-11-27T03:51:04.431Z,364.00
2018-11-27T03:53:36.754Z,339.75
2018-11-27T03:56:09.205Z,368.00
2018-11-27T03:58:40.809Z,360.75
2018-11-27T04:01:12.353Z,383.00
2018-11-27T04:03:43.926Z,388.75
2018-11-27T04:06:15.425Z,361.00
2018-11-27T04:08:47.700Z,375.75
2018-11-27T04:11:19.406Z,391.00
2018-11-27T04:13:51.883Z,349.25
2018-11-27T04:16:23.422Z,370.75
2018-11-27T04:18:54.996Z,376.00
2018-11-27T04:21:26.558Z,383.75
2018-11-27T04:23:58.452Z,357.00
2018-11-27T04:26:30.192Z,360.25
2018-11-27T04:29:01.821Z,364.25
2018-11-27T04:31:33.370Z,340.25
2018-11-27T04:34:05.449Z,368.00
2018-11-27T04:36:36.741Z,377.25
2018-11-27T04:39:10.746Z,358.75
2018-11-27T04:41:43.361Z,380.50
2018-11-27T04:44:15.492Z,366.50
2018-11-27T04:46:47.990Z,322.00
2018-11-27T04:49:20.240Z,330.75
2018-11-27T04:51:52.132Z,339.25
2018-11-27T04:54:24.487Z,363.00
2018-11-27T04:56:56.125Z,332.50
2018-11-27T04:59:28.130Z,358.25
2018-11-27T05:02:00.965Z,351.00
2018-11-27T05:04:34.013Z,400.25
2018-11-27T05:07:06.814Z,396.00
2018-11-27T05:09:38.823Z,399.75
2018-11-27T05:12:10.764Z,392.50
2018-11-27T05:14:42.363Z,371.75
2018-11-27T05:17:14.885Z,392.75
2018-11-27T05:19:48.171Z,354.00
2018-11-27T05:22:21.086Z,371.75
2018-11-27T05:24:53.505Z,362.50
2018-11-27T05:27:25.685Z,386.25
2018-11-27T05:29:57.220Z,344.00
2018-11-27T05:32:28.894Z,414.25
2018-11-27T05:35:01.296Z,403.00
2018-11-27T05:37:32.690Z,389.00
2018-11-27T05:40:04.158Z,393.75
2018-11-27T05:42:36.851Z,393.75
2018-11-27T05:45:11.659Z,369.50
2018-11-27T05:47:43.605Z,365.75
2018-11-27T05:50:16.029Z,351.00
2018-11-27T05:52:47.810Z,372.50
2018-11-27T05:55:19.823Z,359.25
2018-11-27T05:57:53.334Z,357.25
2018-11-27T06:00:26.206Z,332.00
2018-11-27T06:03:03.809Z,319.75
2018-11-27T06:05:35.399Z,313.50
2018-11-27T06:08:08.138Z,315.50
2018-11-27T06:10:39.659Z,335.00
2018-11-27T06:13:11.160Z,330.50
2018-11-27T06:15:42.529Z,305.50
2018-11-27T06:18:14.850Z,286.50
2018-11-27T06:20:47.339Z,282.75
2018-11-27T06:23:19.012Z,286.50
2018-11-27T06:25:52.027Z,322.25
2018-11-27T06:28:23.754Z,272.75
2018-11-27T06:30:57.094Z,325.25
2018-11-27T06:33:28.732Z,276.00
2018-11-27T06:36:00.724Z,304.75
2018-11-27T06:38:35.045Z,279.50
2018-11-27T06:41:07.816Z,289.25
2018-11-27T06:43:39.898Z,266.00
2018-11-27T06:46:12.333Z,255.50
2018-11-27T06:48:43.815Z,266.50
2018-11-27T06:51:16.693Z,289.25
2018-11-27T06:53:50.378Z,257.75
2018-11-27T06:56:23.249Z,262.25
2018-11-27T06:58:55.550Z,243.00
2018-11-27T07:01:27.942Z,232.75
2018-11-27T07:03:59.622Z,224.60
2018-11-27T07:06:31.353Z,208.50
2018-11-27T07:09:04.155Z,231.50
2018-11-27T07:11:36.812Z,222.60
2018-11-27T07:14:10.013Z,231.00
2018-11-27T07:16:41.638Z,238.25
2018-11-27T07:19:15.945Z,234.80
2018-11-27T07:21:48.957Z,219.40
2018-11-27T07:24:21.370Z,222.20
2018-11-27T07:26:53.464Z,226.00
2018-11-27T07:29:25.023Z,230.25
2018-11-27T07:31:58.148Z,229.25
2018-11-27T07:34:30.155Z,240.00
2018-11-27T07:37:03.594Z,227.20
2018-11-27T07:39:35.328Z,236.75
2018-11-27T07:42:08.061Z,226.60
2018-11-27T07:44:40.750Z,221.80
2018-11-27T07:47:12.445Z,211.60
2018-11-27T07:49:44.568Z,231.20
2018-11-27T07:52:16.517Z,219.80
2018-11-27T07:54:49.828Z,211.60
2018-11-27T07:57:22.035Z,207.00
2018-11-27T07:59:54.644Z,222.20
2018-11-27T08:02:26.100Z,220.40
2018-11-27T08:04:57.845Z,194.80
2018-11-27T08:07:29.624Z,206.80
2018-11-27T08:10:01.003Z,204.60
2018-11-27T08:12:32.809Z,200.00
2018-11-27T08:15:05.283Z,206.80
2018-11-27T08:17:37.060Z,198.20
2018-11-27T08:20:10.458Z,195.40
2018-11-27T08:22:43.334Z,186.00
2018-11-27T08:25:17.912Z,193.40
2018-11-27T08:27:50.915Z,201.60
2018-11-27T08:30:27.193Z,195.60
2018-11-27T08:33:02.919Z,221.20
2018-11-27T08:35:36.015Z,191.20
2018-11-27T08:38:07.826Z,184.60
2018-11-27T08:40:40.737Z,213.20
2018-11-27T08:43:13.483Z,203.20
2018-11-27T08:45:45.106Z,202.80
2018-11-27T08:48:17.920Z,209.20
2018-11-27T08:50:51.672Z,199.20
2018-11-27T08:53:23.411Z,194.00
2018-11-27T08:55:55.782Z,185.40
2018-11-27T08:58:31.272Z,173.60
2018-11-27T09:01:02.827Z,186.20
2018-11-27T09:03:34.611Z,171.00
2018-11-27T09:06:07.376Z,180.20
2018-11-27T09:08:44.052Z,209.40
2018-11-27T09:11:20.800Z,188.00
2018-11-27T09:13:54.330Z,191.00
2018-11-27T09:16:32.382Z,156.60
2018-11-27T09:19:09.197Z,187.00
2018-11-27T09:21:47.304Z,182.20
2018-11-27T09:24:21.973Z,182.20
2018-11-27T09:26:53.562Z,197.20
2018-11-27T09:29:25.820Z,180.80
2018-11-27T09:32:05.360Z,181.80
2018-11-27T09:34:39.395Z,184.20
2018-11-27T09:37:11.000Z,198.00
2018-11-27T09:39:44.885Z,183.60
2018-11-27T09:42:19.724Z,192.60
2018-11-27T09:44:55.497Z,200.40
2018-11-27T09:47:28.231Z,226.00
2018-11-27T09:50:00.183Z,206.80
2018-11-27T09:52:32.647Z,228.40
2018-11-27T09:55:06.048Z,229.50
2018-11-27T09:57:39.221Z,232.60
2018-11-27T10:00:46.466Z,222.20
2018-11-27T10:03:18.787Z,216.80
2018-11-27T10:05:50.506Z,234.20
2018-11-27T10:08:23.055Z,242.25
2018-11-27T10:10:55.045Z,226.50
2018-11-27T10:13:28.728Z,238.75
2018-11-27T10:16:00.697Z,229.75
2018-11-27T10:18:32.599Z,245.00
2018-11-27T10:21:06.390Z,236.50
2018-11-27T10:23:39.836Z,246.00
2018-11-27T10:26:12.923Z,225.00
2018-11-27T10:28:45.754Z,211.40
2018-11-27T10:31:21.876Z,218.00
2018-11-27T10:33:54.910Z,223.60
2018-11-27T10:36:27.700Z,220.40
2018-11-27T10:39:04.563Z,211.20
2018-11-27T10:41:37.883Z,208.80
2018-11-27T10:44:10.269Z,206.40
2018-11-27T10:46:42.816Z,211.60
2018-11-27T10:49:16.588Z,209.80
2018-11-27T10:51:48.601Z,202.60
2018-11-27T10:54:21.575Z,189.40
2018-11-27T10:59:40.638Z,200.20
2018-11-27T11:02:18.289Z,216.00
2018-11-27T11:04:51.141Z,209.60
2018-11-27T11:07:24.919Z,207.00
2018-11-27T11:09:56.631Z,193.00
2018-11-27T11:12:28.429Z,197.40
2018-11-27T11:15:01.925Z,194.20
2018-11-27T11:17:34.626Z,184.60
2018-11-27T11:20:12.457Z,186.40
2018-11-27T11:22:44.779Z,209.20
2018-11-27T11:25:19.746Z,194.00
2018-11-27T11:27:58.486Z,194.00
2018-11-27T11:33:40.082Z,203.20
2018-11-27T11:36:16.832Z,210.80
2018-11-27T11:45:43.628Z,198.80
2018-11-27T11:51:43.687Z,207.60
2018-11-27T11:54:37.235Z,212.00
2018-11-27T11:57:34.405Z,182.00
2018-11-27T12:00:27.817Z,211.40
2018-11-27T12:03:20.522Z,204.40
2018-11-27T12:06:07.018Z,220.80
2018-11-27T12:08:47.168Z,218.00
2018-11-27T12:11:44.941Z,219.00
2018-11-27T12:14:19.355Z,218.80
2018-11-27T12:17:09.944Z,219.00
2018-11-27T12:19:54.217Z,218.00
2018-11-27T12:22:34.009Z,229.20
2018-11-27T12:25:23.969Z,208.20
2018-11-27T12:27:54.653Z,218.80
2018-11-27T12:30:28.243Z,219.20
2018-11-27T12:32:59.948Z,211.80
2018-11-27T12:35:31.970Z,225.20
2018-11-27T12:38:04.082Z,226.00
2018-11-27T12:40:36.696Z,221.75
2018-11-27T12:43:08.406Z,241.50
2018-11-27T12:45:40.067Z,247.00
2018-11-27T12:48:11.667Z,249.50
2018-11-27T12:50:45.635Z,262.50
2018-11-27T12:53:18.752Z,267.50
2018-11-27T12:55:53.354Z,269.50
2018-11-27T12:58:25.105Z,275.25
2018-11-27T13:00:56.670Z,292.50
2018-11-27T13:03:28.304Z,308.25
2018-11-27T13:05:59.832Z,297.50
2018-11-27T13:08:31.746Z,316.25
2018-11-27T13:11:03.283Z,320.50
2018-11-27T13:13:35.814Z,314.00
2018-11-27T13:16:07.363Z,324.25
2018-11-27T13:18:40.773Z,295.00
2018-11-27T13:21:17.125Z,305.25
2018-11-27T13:23:48.600Z,303.50
2018-11-27T13:26:20.359Z,291.25
2018-11-27T13:28:51.906Z,293.50
2018-11-27T13:31:27.616Z,283.25
2018-11-27T13:34:05.464Z,276.50
2018-11-27T13:36:37.290Z,273.75
2018-11-27T13:39:18.851Z,282.75
2018-11-27T13:41:50.729Z,262.25
2018-11-27T13:44:22.454Z,266.75
2018-11-27T13:46:53.987Z,271.75
2018-11-27T13:49:25.474Z,286.25
2018-11-27T13:51:57.064Z,284.00
2018-11-27T13:54:29.451Z,272.50
2018-11-27T13:57:01.050Z,288.25
2018-11-27T13:59:33.012Z,324.75
2018-11-27T14:02:04.941Z,320.75
2018-11-27T14:04:36.614Z,342.25
2018-11-27T14:07:08.467Z,325.50
2018-11-27T14:09:41.773Z,315.25
2018-11-27T14:12:13.658Z,309.75
2018-11-27T14:14:45.609Z,310.50
2018-11-27T14:17:17.545Z,281.25
2018-11-27T14:19:50.137Z,311.75
2018-11-27T14:22:25.081Z,304.25
2018-11-27T14:24:54.229Z,322.50
2018-11-27T14:27:25.957Z,305.75
2018-11-27T14:29:57.688Z,314.50
2018-11-27T14:32:29.568Z,305.75
2018-11-27T14:35:01.348Z,314.00
2018-11-27T14:37:33.207Z,293.25
2018-11-27T14:40:06.556Z,309.00
2018-11-27T14:42:38.883Z,326.50
2018-11-27T14:45:15.286Z,306.25
2018-11-27T14:47:47.994Z,340.00
2018-11-27T14:50:19.748Z,311.25
2018-11-27T14:52:51.488Z,323.25
2018-11-27T14:55:25.235Z,332.50
2018-11-27T14:57:57.241Z,322.50
2018-11-27T15:00:29.223Z,318.75
2018-11-27T15:03:01.014Z,310.50
2018-11-27T15:05:34.066Z,325.25
2018-11-27T15:08:06.751Z,348.00
2018-11-27T15:10:38.855Z,333.00
2018-11-27T15:13:11.475Z,347.00
2018-11-27T15:15:46.138Z,337.00
2018-11-27T15:18:18.775Z,297.75
2018-11-27T15:20:51.244Z,318.75
2018-11-27T15:23:22.946Z,377.75
2018-11-27T15:25:54.738Z,462.60
2018-11-27T15:28:26.459Z,458.20
2018-11-27T15:30:58.472Z,308.50
2018-11-27T15:33:30.401Z,331.50
2018-11-27T15:36:02.008Z,348.25
2018-11-27T15:38:33.882Z,337.50
2018-11-27T15:41:05.979Z,327.25
2018-11-27T15:43:37.639Z,345.50
2018-11-27T15:46:09.139Z,313.25
2018-11-27T15:48:40.813Z,320.75
2018-11-27T15:51:12.291Z,344.00
2018-11-27T15:53:45.210Z,332.00
2018-11-27T15:56:16.888Z,333.75
2018-11-27T15:58:48.444Z,361.50
2018-11-27T16:01:20.976Z,336.25
2018-11-27T16:03:52.525Z,335.50
2018-11-27T16:06:24.048Z,333.75
2018-11-27T16:08:56.041Z,369.75
2018-11-27T16:11:27.897Z,363.25
2018-11-27T16:14:00.636Z,370.75
2018-11-27T16:16:32.408Z,332.25
2018-11-27T16:19:05.154Z,335.25
2018-11-27T16:21:37.034Z,330.50
2018-11-27T16:24:08.960Z,333.25
2018-11-27T16:26:40.964Z,321.00
2018-11-27T16:29:12.965Z,315.50
2018-11-27T16:31:44.995Z,327.00
2018-11-27T16:34:17.003Z,347.00
2018-11-27T16:36:48.770Z,307.00
2018-11-27T16:39:20.557Z,305.25
2018-11-27T16:41:53.279Z,329.50
2018-11-27T16:44:25.315Z,300.00
2018-11-27T16:46:57.418Z,318.50
2018-11-27T16:49:29.598Z,318.00
2018-11-27T16:52:01.191Z,317.25
2018-11-27T16:54:33.037Z,296.25
2018-11-27T16:57:05.266Z,330.00
2018-11-27T16:59:37.001Z,321.25
2018-11-27T17:02:08.896Z,285.50
2018-11-27T17:04:41.079Z,284.75
2018-11-27T17:07:12.718Z,293.25
2018-11-27T17:09:44.291Z,294.50
2018-11-27T17:12:16.698Z,303.00
2018-11-27T17:14:48.269Z,276.75
2018-11-27T17:17:20.011Z,273.75
2018-11-27T17:19:51.603Z,278.75
2018-11-27T17:22:23.318Z,293.75
2018-11-27T17:24:54.676Z,285.00
2018-11-27T17:27:27.328Z,313.25
2018-11-27T17:29:59.358Z,283.00
2018-11-27T17:32:31.428Z,259.50
2018-11-27T17:35:03.457Z,288.50
2018-11-27T17:37:35.480Z,272.25
2018-11-27T17:40:09.005Z,306.50
2018-11-27T17:42:41.470Z,264.25
2018-11-27T17:45:16.679Z,283.00
2018-11-27T17:47:48.877Z,275.00
2018-11-27T17:50:20.891Z,274.75
2018-11-27T17:52:52.848Z,287.25
2018-11-27T17:55:24.799Z,254.25
2018-11-27T17:57:56.943Z,269.50
2018-11-27T18:00:30.721Z,277.25
2018-11-27T18:03:04.688Z,265.75
2018-11-27T18:05:36.382Z,280.50
2018-11-27T18:08:09.019Z,274.00
2018-11-27T18:10:40.936Z,264.50
2018-11-27T18:13:13.431Z,288.25
2018-11-27T18:15:45.394Z,249.25
2018-11-27T18:18:17.206Z,284.75
2018-11-27T18:20:49.567Z,288.00
2018-11-27T18:23:21.799Z,271.50
2018-11-27T18:25:53.976Z,288.25
2018-11-27T18:28:25.911Z,267.50
2018-11-27T18:30:57.656Z,283.25
2018-11-27T18:33:29.307Z,284.25
2018-11-27T18:36:01.168Z,273.75
2018-11-27T18:38:32.984Z,276.25
2018-11-27T18:41:05.113Z,281.75
2018-11-27T18:43:37.067Z,289.50
2018-11-27T18:46:10.798Z,290.50
2018-11-27T18:48:43.092Z,281.50
2018-11-27T18:51:15.660Z,283.00
2018-11-27T18:53:47.330Z,290.50
2018-11-27T18:56:19.120Z,288.25
2018-11-27T18:58:51.006Z,290.00
2018-11-27T19:01:23.087Z,268.50
2018-11-27T19:03:54.945Z,279.50
2018-11-27T19:06:27.099Z,276.00
2018-11-27T19:08:59.777Z,266.25
2018-11-27T19:11:31.662Z,292.50
2018-11-27T19:14:04.433Z,265.75
2018-11-27T19:16:36.575Z,290.50
2018-11-27T19:19:08.469Z,277.75
2018-11-27T19:21:40.492Z,294.50
2018-11-27T19:24:12.735Z,292.25
2018-11-27T19:26:44.687Z,239.00
2018-11-27T19:29:16.298Z,282.00
2018-11-27T19:31:47.960Z,282.25
2018-11-27T19:34:19.733Z,308.00
2018-11-27T19:36:51.450Z,307.50
2018-11-27T19:39:23.603Z,290.50
2018-11-27T19:41:55.493Z,280.50
2018-11-27T19:44:28.369Z,285.25
2018-11-27T19:47:00.253Z,271.25
2018-11-27T19:49:37.985Z,253.00
2018-11-27T19:52:13.571Z,278.25
2018-11-27T19:54:45.527Z,271.50
2018-11-27T19:57:17.291Z,291.25
2018-11-27T19:59:49.399Z,273.50
2018-11-27T20:02:21.363Z,281.50
2018-11-27T20:04:53.325Z,285.50
2018-11-27T20:07:25.211Z,286.75
2018-11-27T20:09:57.550Z,289.75
2018-11-27T20:12:29.490Z,286.50
2018-11-27T20:15:02.416Z,285.00
2018-11-27T20:17:36.054Z,276.50
2018-11-27T20:20:09.480Z,291.25
2018-11-27T20:22:42.958Z,271.00
2018-11-27T20:25:17.639Z,289.75
2018-11-27T20:27:49.611Z,296.25
2018-11-27T20:30:24.459Z,274.50
2018-11-27T20:32:58.851Z,287.50
2018-11-27T20:35:31.240Z,260.00
2018-11-27T20:38:05.980Z,309.75
2018-11-27T20:40:37.902Z,284.50
2018-11-27T20:43:09.840Z,284.25
2018-11-27T20:45:42.161Z,296.00
2018-11-27T20:48:18.171Z,261.25
2018-11-27T20:50:52.587Z,282.25
2018-11-27T20:53:24.566Z,309.00
2018-11-27T20:55:56.804Z,305.75
2018-11-27T20:58:28.950Z,294.50
2018-11-27T21:01:01.182Z,285.00
2018-11-27T21:03:33.591Z,275.50
2018-11-27T21:06:06.017Z,292.25
2018-11-27T21:08:38.142Z,315.00
2018-11-27T21:11:10.711Z,298.00
2018-11-27T21:13:43.005Z,304.75
2018-11-27T21:16:15.251Z,278.25
2018-11-27T21:18:47.437Z,271.25
2018-11-27T21:21:19.573Z,277.50
2018-11-27T21:23:51.902Z,296.25
2018-11-27T21:26:23.802Z,289.50
2018-11-27T21:28:55.839Z,309.25
2018-11-27T21:31:27.725Z,292.25
2018-11-27T21:33:59.902Z,319.25
2018-11-27T21:36:31.904Z,290.75
2018-11-27T21:39:04.853Z,309.75
2018-11-27T21:41:36.962Z,293.75
2018-11-27T21:44:09.367Z,291.50
2018-11-27T21:46:41.849Z,306.25
2018-11-27T21:49:14.142Z,301.25
2018-11-27T21:51:46.283Z,315.00
2018-11-27T21:54:18.235Z,305.50
2018-11-27T21:56:50.765Z,291.25
2018-11-27T21:59:22.815Z,295.00
2018-11-27T22:01:54.761Z,282.50
2018-11-27T22:04:27.077Z,288.25
2018-11-27T22:06:59.239Z,295.00
2018-11-27T22:09:31.479Z,271.25
2018-11-27T22:12:04.551Z,297.75
2018-11-27T22:14:37.081Z,287.25
2018-11-27T22:17:09.843Z,286.00
2018-11-27T22:19:42.612Z,255.75
2018-11-27T22:22:14.365Z,301.75
2018-11-27T22:24:46.331Z,299.00
2018-11-27T22:27:18.191Z,290.00
2018-11-27T22:29:50.494Z,303.75
2018-11-27T22:32:22.511Z,280.50
2018-11-27T22:34:54.945Z,289.50
2018-11-27T22:37:28.110Z,323.50
2018-11-27T22:40:00.342Z,322.75
2018-11-27T22:42:32.574Z,331.00
2018-11-27T22:45:04.960Z,301.25
2018-11-27T22:47:37.656Z,323.25
2018-11-27T22:50:12.955Z,327.75
2018-11-27T22:52:44.492Z,299.50
2018-11-27T22:55:16.458Z,335.75
2018-11-27T22:57:48.505Z,294.25
2018-11-27T23:00:29.490Z,317.00
2018-11-27T23:03:01.670Z,296.50
2018-11-27T23:05:33.875Z,320.50
2018-11-27T23:08:05.887Z,290.25
2018-11-27T23:10:39.390Z,288.50
2018-11-27T23:13:11.256Z,293.25
2018-11-27T23:15:43.204Z,317.25
2018-11-27T23:18:15.473Z,312.25
2018-11-27T23:20:47.548Z,309.25
2018-11-27T23:23:19.314Z,285.25
2018-11-27T23:25:51.236Z,293.25
2018-11-27T23:28:23.236Z,282.50
2018-11-27T23:30:55.086Z,297.25
2018-11-27T23:33:26.933Z,293.75
2018-11-27T23:35:59.130Z,313.00
2018-11-27T23:38:31.411Z,270.25
2018-11-27T23:41:03.283Z,315.25
2018-11-27T23:43:35.331Z,300.50
2018-11-27T23:46:07.263Z,295.50
2018-11-27T23:48:39.639Z,285.25
2018-11-27T23:51:11.562Z,297.00
2018-11-27T23:53:43.456Z,283.75
2018-11-27T23:56:15.341Z,304.75
2018-11-27T23:58:47.631Z,294.50
